Time;durP1;ratioP1;P1;durP2;ratioP2;P2;SDS_P1;SDS_P2;PMS_P1;PMS_P2;Temp;Humidity;BMP_temperature;BMP_pressure;BME280_temperature;BME280_humidity;BME280_pressure;Samples;Min_cycle;Max_cycle;Signal;HPM_P1;HPM_P2
2021/07/24 00:01:12;;;;;;;17.35;10.63;;;512.10;2380.80;;;;;;4943675;29;20046;-83
2021/07/24 00:03:38;;;;;;;18.05;10.15;;;487.00;2380.80;;;;;;4958188;29;20078;-83
2021/07/24 00:06:05;;;;;;;12.60;9.93;;;487.00;2380.80;;;;;;4941171;29;20104;-83
2021/07/24 00:08:31;;;;;;;11.93;10.02;;;487.00;2380.80;;;;;;4940907;29;20027;-83
2021/07/24 00:11:01;;;;;;;12.50;9.20;;;487.00;2380.80;;;;;;4940677;29;20028;-83
2021/07/24 00:13:26;;;;;;;12.88;9.80;;;487.00;2380.80;;;;;;4940698;29;20034;-85
2021/07/24 00:15:52;;;;;;;14.13;10.18;;;487.00;2380.80;;;;;;4940811;29;20019;-83
2021/07/24 00:18:18;;;;;;;17.35;9.82;;;487.00;2380.80;;;;;;4940603;29;20037;-83
2021/07/24 00:20:44;;;;;;;11.30;9.45;;;487.00;2380.80;;;;;;4940756;29;20042;-83
2021/07/24 00:23:11;;;;;;;14.15;9.15;;;487.00;2380.80;;;;;;4940848;29;20024;-84
2021/07/24 00:25:37;;;;;;;14.38;9.68;;;487.00;2380.80;;;;;;4941692;29;20078;-84
2021/07/24 00:28:03;;;;;;;15.18;10.00;;;486.80;2380.80;;;;;;4942717;29;20032;-83
2021/07/24 00:30:29;;;;;;;13.48;9.10;;;486.80;2380.80;;;;;;4941249;28;20140;-83
2021/07/24 00:32:55;;;;;;;15.68;10.00;;;486.70;2380.80;;;;;;4940356;29;20041;-85
2021/07/24 00:35:21;;;;;;;12.32;9.50;;;486.70;2380.80;;;;;;4940563;29;20027;-85
2021/07/24 00:37:47;;;;;;;14.82;9.52;;;486.70;2380.80;;;;;;4940475;29;20117;-83
2021/07/24 00:40:20;;;;;;;16.40;9.82;;;486.70;2380.80;;;;;;4957448;29;20453;-83
2021/07/24 00:42:51;;;;;;;14.77;9.80;;;486.50;2380.80;;;;;;4940088;29;20035;-84
2021/07/24 00:45:18;;;;;;;15.85;9.80;;;486.50;2380.80;;;;;;4940303;29;20429;-85
2021/07/24 00:47:46;;;;;;;18.75;9.40;;;486.50;2380.80;;;;;;4940254;29;20073;-84
2021/07/24 00:50:15;;;;;;;12.32;9.27;;;486.70;2380.80;;;;;;4957349;29;20027;-84
2021/07/24 00:52:43;;;;;;;11.02;9.27;;;486.60;2380.80;;;;;;4940078;29;20128;-84
2021/07/24 00:55:11;;;;;;;12.88;9.35;;;486.60;2380.80;;;;;;4940337;29;20027;-84
2021/07/24 00:57:40;;;;;;;13.70;9.23;;;486.50;2380.80;;;;;;4939981;29;20083;-85
2021/07/24 01:00:08;;;;;;;13.18;9.25;;;486.50;2380.80;;;;;;4957188;29;20031;-85
2021/07/24 01:02:34;;;;;;;12.88;9.40;;;486.50;2380.80;;;;;;4939833;29;20055;-86
2021/07/24 01:05:02;;;;;;;13.15;9.43;;;486.50;2380.80;;;;;;4940052;29;20054;-84
2021/07/24 01:07:29;;;;;;;11.40;10.20;;;461.70;2380.80;;;;;;4956314;28;20023;-84
2021/07/24 01:09:57;;;;;;;13.07;9.48;;;486.40;2380.80;;;;;;4940039;29;20381;-83
2021/07/24 01:12:24;;;;;;;17.20;10.98;;;461.50;2380.80;;;;;;4939887;29;20049;-83
2021/07/24 01:14:51;;;;;;;13.50;10.07;;;486.40;2380.80;;;;;;4939819;29;20031;-83
2021/07/24 01:17:17;;;;;;;13.82;9.50;;;486.50;2380.80;;;;;;4939678;29;20089;-85
2021/07/24 01:19:43;;;;;;;14.48;9.90;;;461.60;2380.80;;;;;;4939783;29;20031;-87
2021/07/24 01:22:09;;;;;;;12.68;8.85;;;461.60;2380.80;;;;;;4939762;29;20544;-85
2021/07/24 01:24:34;;;;;;;12.75;9.57;;;461.50;2380.80;;;;;;4939683;29;20042;-84
2021/07/24 01:27:06;;;;;;;15.15;9.73;;;461.70;2380.80;;;;;;4939559;29;20035;-83
2021/07/24 01:29:34;;;;;;;12.35;9.68;;;461.60;2380.80;;;;;;4939473;29;20027;-83
2021/07/24 01:31:59;;;;;;;11.60;9.48;;;461.70;2380.80;;;;;;4938909;29;20052;-85
2021/07/24 01:34:25;;;;;;;16.17;11.57;;;461.60;2380.80;;;;;;4939508;29;20028;-84
2021/07/24 01:36:51;;;;;;;18.35;11.30;;;461.60;2380.80;;;;;;4939079;29;20035;-84
2021/07/24 01:39:17;;;;;;;18.40;10.45;;;461.50;2380.80;;;;;;4939465;29;20032;-88
2021/07/24 01:41:44;;;;;;;18.20;10.07;;;461.70;2380.80;;;;;;4938988;29;20462;-85
2021/07/24 01:44:10;;;;;;;17.88;9.60;;;461.40;2380.80;;;;;;4955277;29;20027;-85
2021/07/24 01:46:36;;;;;;;13.77;10.02;;;461.50;2380.80;;;;;;4939150;29;20031;-84
2021/07/24 01:54:42;;;;;;;13.98;10.63;;;461.50;2380.80;;;;;;4956170;29;20151;-84
2021/07/24 01:57:10;;;;;;;13.23;10.05;;;461.40;2380.80;;;;;;4938982;29;20085;-85
2021/07/24 01:59:42;;;;;;;12.35;9.45;;;461.40;2380.80;;;;;;4939284;29;20041;-84
2021/07/24 02:02:09;;;;;;;13.27;9.90;;;461.40;2380.80;;;;;;4938940;29;20039;-83
2021/07/24 02:04:40;;;;;;;14.18;9.23;;;461.40;2380.80;;;;;;4939021;29;20393;-84
2021/07/24 02:07:10;;;;;;;15.73;9.52;;;461.40;2380.80;;;;;;4939210;29;20035;-83
2021/07/24 02:09:36;;;;;;;15.20;9.90;;;461.30;2380.80;;;;;;4938766;29;20027;-84
2021/07/24 02:12:03;;;;;;;11.88;8.82;;;461.30;2380.80;;;;;;4938860;29;20028;-84
2021/07/24 02:14:33;;;;;;;11.18;8.90;;;461.30;2380.80;;;;;;4938727;29;20063;-84
2021/07/24 02:16:59;;;;;;;11.80;10.00;;;461.30;2380.80;;;;;;4938734;29;20038;-84
2021/07/24 02:19:27;;;;;;;11.75;9.77;;;461.40;2380.80;;;;;;4942905;29;20031;-84
2021/07/24 02:21:52;;;;;;;11.85;9.00;;;461.10;2380.80;;;;;;4945008;29;20031;-86
2021/07/24 02:24:18;;;;;;;10.70;9.48;;;461.10;2380.80;;;;;;4945134;29;20031;-83
2021/07/24 02:26:44;;;;;;;11.05;9.82;;;461.30;2380.80;;;;;;4962311;29;20083;-83
2021/07/24 02:29:10;;;;;;;13.13;9.57;;;461.30;2380.80;;;;;;4944835;29;20054;-83
2021/07/24 02:31:36;;;;;;;11.85;9.38;;;461.30;2380.80;;;;;;4943943;29;20047;-84
2021/07/24 02:34:01;;;;;;;15.23;9.57;;;461.40;2380.80;;;;;;4944731;29;20046;-84
2021/07/24 02:36:27;;;;;;;13.07;9.73;;;461.30;2380.80;;;;;;4944604;29;20477;-86
2021/07/24 02:38:53;;;;;;;14.40;9.40;;;461.30;2380.80;;;;;;4944878;29;20058;-86
2021/07/24 02:41:19;;;;;;;14.88;10.38;;;461.20;2380.80;;;;;;4945181;29;20035;-84
2021/07/24 02:43:45;;;;;;;15.40;10.77;;;461.20;2380.80;;;;;;4944741;29;20028;-83
2021/07/24 02:46:10;;;;;;;14.05;9.80;;;461.20;2380.80;;;;;;4944284;29;20121;-84
2021/07/24 02:48:36;;;;;;;16.83;9.75;;;461.10;2380.80;;;;;;4944384;29;20023;-84
2021/07/24 02:51:02;;;;;;;13.68;10.27;;;461.00;2380.80;;;;;;4944608;29;20067;-84
2021/07/24 02:53:28;;;;;;;11.02;9.65;;;436.10;2355.20;;;;;;4944699;29;20034;-84
2021/07/24 02:55:54;;;;;;;16.45;10.93;;;436.10;2355.20;;;;;;4962017;29;20027;-85
2021/07/24 02:58:19;;;;;;;11.82;9.60;;;436.10;2355.20;;;;;;4962003;29;20130;-87
2021/07/24 03:00:45;;;;;;;12.27;10.25;;;436.10;2355.20;;;;;;4944237;29;20070;-84
2021/07/24 03:03:11;;;;;;;11.75;9.73;;;435.90;2355.20;;;;;;4961534;29;20031;-83
2021/07/24 03:05:37;;;;;;;12.63;9.77;;;460.80;2380.80;;;;;;4961385;28;20051;-86
2021/07/24 03:08:03;;;;;;;13.57;10.18;;;460.80;2380.80;;;;;;4944828;29;20385;-85
2021/07/24 03:10:28;;;;;;;11.85;9.85;;;460.80;2380.80;;;;;;4945004;29;20027;-84
2021/07/24 03:12:54;;;;;;;12.05;9.07;;;460.90;2380.80;;;;;;4944422;29;20034;-84
2021/07/24 03:15:20;;;;;;;12.02;10.45;;;460.90;2380.80;;;;;;4944348;29;20073;-84
2021/07/24 03:17:46;;;;;;;13.70;9.88;;;461.00;2380.80;;;;;;4944486;29;20086;-87
2021/07/24 03:20:12;;;;;;;11.13;9.98;;;461.00;2380.80;;;;;;4944563;28;20075;-86
2021/07/24 03:22:37;;;;;;;13.85;10.48;;;460.80;2380.80;;;;;;4944556;29;20122;-85
2021/07/24 03:25:04;;;;;;;12.75;10.57;;;460.80;2380.80;;;;;;4944645;29;20063;-84
2021/07/24 03:27:30;;;;;;;17.55;10.73;;;460.90;2380.80;;;;;;4944375;29;20456;-86
2021/07/24 03:29:55;;;;;;;12.80;9.73;;;460.80;2380.80;;;;;;4942955;29;20068;-84
2021/07/24 03:32:21;;;;;;;12.98;10.90;;;460.90;2380.80;;;;;;4941236;29;20055;-84
2021/07/24 03:34:47;;;;;;;11.88;10.35;;;461.00;2380.80;;;;;;4941338;29;20114;-87
2021/07/24 03:37:13;;;;;;;11.82;9.55;;;461.00;2380.80;;;;;;4941584;29;20392;-89
2021/07/24 03:39:38;;;;;;;12.23;9.65;;;461.10;2380.80;;;;;;4941545;29;20035;-88
2021/07/24 03:42:04;;;;;;;14.05;9.38;;;461.00;2380.80;;;;;;4941324;29;20062;-85
2021/07/24 03:44:30;;;;;;;14.95;9.93;;;461.00;2380.80;;;;;;4941271;29;20031;-84
2021/07/24 03:46:56;;;;;;;19.20;10.75;;;461.00;2380.80;;;;;;4941400;29;20027;-84
2021/07/24 03:49:21;;;;;;;13.88;10.52;;;460.90;2380.80;;;;;;4941192;29;20465;-84
2021/07/24 03:51:47;;;;;;;20.02;12.00;;;460.80;2380.80;;;;;;4941320;29;20401;-85
2021/07/24 03:54:13;;;;;;;17.30;11.00;;;461.00;2380.80;;;;;;4941203;29;20035;-84
2021/07/24 03:56:39;;;;;;;15.80;10.63;;;461.00;2380.80;;;;;;4940812;29;20461;-85
2021/07/24 03:59:04;;;;;;;17.85;11.27;;;461.10;2380.80;;;;;;4941256;29;20028;-83
2021/07/24 04:01:30;;;;;;;18.38;11.23;;;461.20;2380.80;;;;;;4958010;29;20054;-84
2021/07/24 04:03:56;;;;;;;27.45;12.35;;;461.30;2380.80;;;;;;4941089;29;20090;-85
2021/07/24 04:06:25;;;;;;;15.60;10.65;;;461.20;2380.80;;;;;;4941033;29;20401;-85
2021/07/24 04:08:52;;;;;;;17.42;10.85;;;461.20;2380.80;;;;;;4940816;29;20027;-85
2021/07/24 04:11:20;;;;;;;14.43;9.93;;;461.10;2380.80;;;;;;4940781;29;20469;-83
2021/07/24 04:13:47;;;;;;;14.02;11.13;;;461.10;2380.80;;;;;;4940825;29;20024;-84
2021/07/24 04:16:13;;;;;;;13.35;10.10;;;461.20;2380.80;;;;;;4940688;29;20118;-84
2021/07/24 04:18:40;;;;;;;16.88;11.10;;;461.00;2380.80;;;;;;4940908;29;20035;-86
2021/07/24 04:21:05;;;;;;;13.07;10.43;;;460.80;2380.80;;;;;;4940684;29;20450;-85
2021/07/24 04:23:31;;;;;;;21.88;10.63;;;461.10;2380.80;;;;;;4940610;29;20122;-85
2021/07/24 04:25:57;;;;;;;14.38;9.80;;;461.10;2380.80;;;;;;4940681;29;20055;-85
2021/07/24 04:28:23;;;;;;;15.65;10.32;;;461.00;2380.80;;;;;;4941617;29;20027;-85
2021/07/24 04:30:49;;;;;;;15.93;10.15;;;461.30;2380.80;;;;;;4941079;29;20058;-85
2021/07/24 04:33:15;;;;;;;11.23;9.13;;;461.40;2380.80;;;;;;4940532;29;20038;-84
2021/07/24 04:35:48;;;;;;;13.23;9.98;;;461.50;2380.80;;;;;;4940560;29;20030;-85
2021/07/24 04:38:15;;;;;;;12.50;9.35;;;461.50;2380.80;;;;;;4940342;29;20027;-84
2021/07/24 04:40:42;;;;;;;12.82;9.70;;;461.60;2380.80;;;;;;4940217;29;20035;-86
2021/07/24 04:43:08;;;;;;;12.05;9.30;;;461.70;2380.80;;;;;;4939224;29;20034;-84
2021/07/24 04:45:34;;;;;;;15.15;10.52;;;461.70;2380.80;;;;;;4940148;29;20031;-84
2021/07/24 04:48:00;;;;;;;13.02;9.98;;;461.60;2380.80;;;;;;4940438;29;20031;-84
2021/07/24 04:50:27;;;;;;;17.48;10.98;;;461.60;2380.80;;;;;;4940342;29;20031;-84
2021/07/24 04:52:53;;;;;;;16.65;11.57;;;461.50;2380.80;;;;;;4957444;29;20117;-85
2021/07/24 04:55:19;;;;;;;14.70;10.02;;;461.50;2380.80;;;;;;4939747;29;20027;-84
2021/07/24 04:57:45;;;;;;;15.55;10.40;;;461.70;2380.80;;;;;;4936391;29;20071;-84
2021/07/24 05:00:12;;;;;;;15.63;9.60;;;461.70;2380.80;;;;;;4933282;29;20039;-84
2021/07/24 05:02:38;;;;;;;16.85;10.55;;;461.70;2380.80;;;;;;4939937;29;20030;-86
2021/07/24 05:05:04;;;;;;;13.70;9.82;;;461.70;2380.80;;;;;;4956753;29;20027;-84
2021/07/24 05:07:32;;;;;;;15.85;9.77;;;461.70;2380.80;;;;;;4956696;29;20043;-84
2021/07/24 05:09:58;;;;;;;12.13;9.35;;;461.70;2380.80;;;;;;4935945;29;20521;-85
2021/07/24 05:12:24;;;;;;;15.95;10.20;;;486.40;2380.80;;;;;;4919540;29;20027;-85
2021/07/24 05:14:50;;;;;;;15.75;10.68;;;486.50;2380.80;;;;;;4935916;29;20039;-85
2021/07/24 05:17:16;;;;;;;11.30;9.57;;;486.60;2380.80;;;;;;4920472;29;20035;-83
2021/07/24 05:19:43;;;;;;;12.98;10.10;;;486.60;2380.80;;;;;;4920488;29;20094;-85
2021/07/24 05:22:11;;;;;;;14.23;10.02;;;486.40;2380.80;;;;;;4920472;29;20039;-85
2021/07/24 05:24:43;;;;;;;14.77;10.43;;;486.50;2380.80;;;;;;4920429;29;20032;-83
2021/07/24 05:27:09;;;;;;;20.63;10.57;;;486.50;2380.80;;;;;;4919989;29;20090;-83
2021/07/24 05:29:35;;;;;;;16.55;10.45;;;486.60;2380.80;;;;;;4920531;29;20036;-84
2021/07/24 05:32:01;;;;;;;16.27;11.88;;;486.70;2380.80;;;;;;4920033;29;20074;-84
2021/07/24 05:34:27;;;;;;;15.85;11.52;;;486.80;2380.80;;;;;;4919868;29;20382;-86
2021/07/24 05:36:52;;;;;;;15.20;11.23;;;486.70;2380.80;;;;;;4920290;29;20043;-85
2021/07/24 05:39:19;;;;;;;17.23;12.57;;;486.70;2380.80;;;;;;4920307;29;20031;-83
2021/07/24 05:41:45;;;;;;;19.55;12.27;;;486.80;2380.80;;;;;;4937171;29;20034;-85
2021/07/24 05:44:12;;;;;;;16.65;12.68;;;486.90;2380.80;;;;;;4937190;29;20036;-83
2021/07/24 05:46:38;;;;;;;15.18;13.48;;;487.00;2380.80;;;;;;4920259;29;20090;-85
2021/07/24 05:49:04;;;;;;;17.88;12.85;;;487.00;2380.80;;;;;;4920289;29;20024;-83
2021/07/24 05:51:30;;;;;;;15.63;12.70;;;487.00;2380.80;;;;;;4920125;29;20098;-84
2021/07/24 05:53:56;;;;;;;14.77;10.98;;;487.00;2380.80;;;;;;4919588;29;20462;-84
2021/07/24 05:56:21;;;;;;;14.90;11.13;;;487.10;2380.80;;;;;;4919910;29;20035;-85
2021/07/24 05:58:47;;;;;;;14.55;10.88;;;487.20;2380.80;;;;;;4919597;29;20042;-83
2021/07/24 06:01:13;;;;;;;16.48;10.50;;;487.20;2380.80;;;;;;4919967;29;20090;-84
2021/07/24 06:03:40;;;;;;;12.45;9.68;;;512.00;2380.80;;;;;;4935899;29;20201;-83
2021/07/24 06:06:06;;;;;;;12.98;10.00;;;512.30;2380.80;;;;;;4920103;29;20032;-85
2021/07/24 06:08:33;;;;;;;11.95;9.30;;;512.20;2380.80;;;;;;4919851;29;20034;-84
2021/07/24 06:11:04;;;;;;;14.68;10.55;;;512.20;2380.80;;;;;;4936871;29;20195;-84
2021/07/24 06:13:31;;;;;;;15.18;10.00;;;512.30;2380.80;;;;;;4919854;29;20028;-85
2021/07/24 06:16:00;;;;;;;13.98;10.35;;;512.40;2380.80;;;;;;4919782;29;20035;-84
2021/07/24 06:18:26;;;;;;;15.82;9.02;;;512.60;2380.80;;;;;;4919929;29;20036;-83
2021/07/24 06:20:52;;;;;;;12.23;9.02;;;512.80;2380.80;;;;;;4919789;29;20536;-84
2021/07/24 06:23:19;;;;;;;11.88;8.85;;;512.90;2380.80;;;;;;4919646;29;20122;-84
2021/07/24 06:25:49;;;;;;;11.27;9.25;;;537.90;2406.40;;;;;;4919809;29;20377;-84
2021/07/24 06:28:16;;;;;;;14.55;11.52;;;537.60;2406.40;;;;;;4919535;29;20032;-83
2021/07/24 06:30:42;;;;;;;15.45;9.52;;;537.80;2406.40;;;;;;4918466;29;20055;-84
2021/07/24 06:33:08;;;;;;;14.40;8.73;;;537.90;2406.40;;;;;;4919194;29;20035;-85
2021/07/24 06:35:34;;;;;;;13.98;8.32;;;538.00;2406.40;;;;;;4918833;29;20034;-82
2021/07/24 06:38:00;;;;;;;13.50;9.27;;;538.20;2406.40;;;;;;4919125;29;20035;-83
2021/07/24 06:40:26;;;;;;;11.85;8.63;;;538.20;2406.40;;;;;;4919528;29;20032;-84
2021/07/24 06:42:52;;;;;;;11.05;8.52;;;538.50;2406.40;;;;;;4919094;29;20059;-83
2021/07/24 06:45:19;;;;;;;13.30;10.20;;;538.50;2406.40;;;;;;4919104;29;20028;-82
2021/07/24 06:47:45;;;;;;;14.68;9.57;;;563.20;2432.00;;;;;;4918950;29;20035;-82
2021/07/24 06:50:11;;;;;;;13.25;9.88;;;563.50;2432.00;;;;;;4934233;29;20031;-82
2021/07/24 06:52:38;;;;;;;14.10;8.85;;;563.40;2432.00;;;;;;4919491;29;20027;-84
2021/07/24 06:55:04;;;;;;;14.23;8.90;;;563.80;2432.00;;;;;;4919615;29;20030;-84
2021/07/24 06:57:31;;;;;;;19.77;9.32;;;563.90;2432.00;;;;;;4919202;29;20048;-83
2021/07/24 06:59:57;;;;;;;11.90;9.27;;;564.00;2432.00;;;;;;4918868;29;20533;-83
2021/07/24 07:02:23;;;;;;;14.18;9.30;;;588.80;2432.00;;;;;;4919004;29;20028;-84
2021/07/24 07:04:49;;;;;;;13.68;9.38;;;588.90;2432.00;;;;;;4935849;29;20039;-83
2021/07/24 07:07:15;;;;;;;14.63;9.90;;;589.10;2432.00;;;;;;4922623;29;20035;-83
2021/07/24 07:09:40;;;;;;;11.95;9.30;;;589.10;2432.00;;;;;;4922955;29;20466;-82
2021/07/24 07:12:06;;;;;;;16.95;9.93;;;589.10;2432.00;;;;;;4939821;29;20091;-84
2021/07/24 07:14:32;;;;;;;17.52;9.52;;;589.20;2432.00;;;;;;4922581;29;20035;-82
2021/07/24 07:16:58;;;;;;;21.30;11.85;;;589.30;2432.00;;;;;;4922326;29;20032;-85
2021/07/24 07:19:24;;;;;;;14.60;10.32;;;589.40;2432.00;;;;;;4922453;29;20032;-83
2021/07/24 07:21:50;;;;;;;15.20;10.40;;;589.60;2432.00;;;;;;4922436;29;20036;-83
2021/07/24 07:24:16;;;;;;;13.40;10.05;;;589.70;2432.00;;;;;;4922580;29;20032;-84
2021/07/24 07:26:42;;;;;;;14.32;9.13;;;614.50;2432.00;;;;;;4922505;29;20028;-84
2021/07/24 07:29:08;;;;;;;17.35;9.43;;;614.70;2432.00;;;;;;4922531;29;20429;-83
2021/07/24 07:31:35;;;;;;;12.73;9.95;;;614.60;2432.00;;;;;;4922131;29;20379;-82
2021/07/24 07:34:03;;;;;;;15.55;9.65;;;614.80;2432.00;;;;;;4922614;29;20035;-84
2021/07/24 07:36:29;;;;;;;14.90;10.15;;;614.90;2432.00;;;;;;4922487;29;20231;-83
2021/07/24 07:38:55;;;;;;;13.63;9.88;;;614.90;2432.00;;;;;;4922493;29;20027;-83
2021/07/24 07:41:21;;;;;;;17.25;10.32;;;615.20;2432.00;;;;;;4922198;29;20086;-83
2021/07/24 07:43:47;;;;;;;17.38;10.30;;;615.20;2432.00;;;;;;4922247;29;20032;-83
2021/07/24 07:46:13;;;;;;;15.98;10.05;;;615.30;2432.00;;;;;;4939403;29;20032;-83
2021/07/24 07:48:40;;;;;;;11.30;9.60;;;615.30;2432.00;;;;;;4939791;29;20036;-82
2021/07/24 07:51:07;;;;;;;15.18;10.18;;;640.10;2432.00;;;;;;4922970;29;20028;-83
2021/07/24 07:53:33;;;;;;;19.17;11.10;;;640.30;2432.00;;;;;;4922199;29;20087;-84
2021/07/24 07:56:00;;;;;;;13.95;9.43;;;640.60;2432.00;;;;;;4922426;29;20032;-83
2021/07/24 07:58:26;;;;;;;13.90;9.48;;;640.50;2432.00;;;;;;4922232;29;20036;-85
2021/07/24 08:00:55;;;;;;;13.55;9.75;;;640.60;2432.00;;;;;;4921946;29;20051;-85
2021/07/24 08:03:24;;;;;;;16.25;8.65;;;640.90;2432.00;;;;;;4922073;29;20038;-83
2021/07/24 08:05:52;;;;;;;15.85;9.38;;;665.60;2432.00;;;;;;4922212;29;20545;-85
2021/07/24 08:08:18;;;;;;;11.07;7.95;;;640.90;2432.00;;;;;;4921942;29;20469;-83
2021/07/24 08:10:43;;;;;;;12.73;8.40;;;640.50;2432.00;;;;;;4922079;29;20127;-83
2021/07/24 08:13:19;;;;;;;10.25;8.68;;;640.70;2432.00;;;;;;4921766;29;20063;-81
2021/07/24 08:15:47;;;;;;;12.35;8.50;;;640.90;2432.00;;;;;;4921015;29;20028;-81
2021/07/24 08:18:13;;;;;;;10.77;8.50;;;665.80;2432.00;;;;;;4938231;29;20470;-82
2021/07/24 08:20:40;;;;;;;13.80;10.02;;;666.00;2432.00;;;;;;4921388;29;20037;-81
2021/07/24 08:23:08;;;;;;;12.30;8.77;;;666.30;2432.00;;;;;;4921476;29;20114;-78
2021/07/24 08:25:34;;;;;;;13.20;8.73;;;666.50;2432.00;;;;;;4921475;29;20027;-81
2021/07/24 08:28:04;;;;;;;14.13;8.07;;;666.50;2432.00;;;;;;4920986;29;20040;-81
2021/07/24 08:30:31;;;;;;;12.45;8.88;;;691.30;2432.00;;;;;;4921253;29;20394;-81
2021/07/24 08:32:58;;;;;;;13.52;8.25;;;666.50;2432.00;;;;;;4921298;29;20122;-83
2021/07/24 08:35:24;;;;;;;13.75;8.13;;;666.50;2432.00;;;;;;4921128;29;20386;-79
2021/07/24 08:37:50;;;;;;;12.43;8.20;;;691.20;2432.00;;;;;;4938427;29;20494;-83
2021/07/24 08:40:16;;;;;;;13.38;8.48;;;691.30;2432.00;;;;;;4921455;29;20126;-81
2021/07/24 08:42:43;;;;;;;15.85;11.88;;;691.90;2432.00;;;;;;4938180;29;20470;-82
2021/07/24 08:45:11;;;;;;;19.75;11.25;;;691.80;2432.00;;;;;;4920882;29;20032;-85
2021/07/24 08:47:37;;;;;;;17.00;8.25;;;692.10;2406.40;;;;;;4936485;29;20039;-82
2021/07/24 08:50:06;;;;;;;15.55;9.02;;;691.80;2355.20;;;;;;4939918;29;20034;-85
2021/07/24 08:52:33;;;;;;;19.08;9.13;;;691.70;2304.00;;;;;;4939984;29;20055;-83
2021/07/24 08:55:01;;;;;;;16.50;7.72;;;691.80;2329.60;;;;;;4940104;29;20061;-82
2021/07/24 08:57:33;;;;;;;14.25;9.50;;;691.90;2329.60;;;;;;4956941;29;20082;-84
2021/07/24 09:00:26;;;;;;;11.20;8.30;;;692.00;2355.20;;;;;;4940041;29;20094;-83
2021/07/24 09:02:56;;;;;;;13.55;10.18;;;717.10;2329.60;;;;;;4939972;29;20031;-83
2021/07/24 09:05:22;;;;;;;11.48;7.78;;;716.80;2355.20;;;;;;4940093;29;20073;-83
2021/07/24 09:07:50;;;;;;;15.73;9.10;;;717.20;2329.60;;;;;;4940204;29;20035;-85
2021/07/24 09:10:18;;;;;;;11.70;7.80;;;717.50;2278.40;;;;;;4940036;29;20027;-83
2021/07/24 09:12:45;;;;;;;13.15;9.32;;;717.40;2278.40;;;;;;4939780;29;20438;-82
2021/07/24 09:15:16;;;;;;;43.88;12.25;;;717.40;2329.60;;;;;;4939825;29;20061;-84
2021/07/24 09:17:42;;;;;;;14.60;10.10;;;742.40;2380.80;;;;;;4939844;29;20568;-82
2021/07/24 09:20:09;;;;;;;12.88;9.00;;;742.70;2329.60;;;;;;4940348;29;20054;-82
2021/07/24 09:22:40;;;;;;;16.48;8.25;;;742.60;2304.00;;;;;;4940195;29;20417;-84
2021/07/24 09:25:20;;;;;;;8.73;7.27;;;742.60;2252.80;;;;;;4939252;29;20042;-83
2021/07/24 09:27:47;;;;;;;16.73;9.25;;;742.90;2278.40;;;;;;4939011;28;20042;-83
2021/07/24 09:30:27;;;;;;;11.23;7.82;;;743.00;2278.40;;;;;;4939176;29;20046;-81
2021/07/24 09:33:05;;;;;;;10.95;8.25;;;743.10;2278.40;;;;;;4939272;29;20126;-82
2021/07/24 09:35:40;;;;;;;17.55;9.82;;;743.30;2304.00;;;;;;4939148;29;20098;-85
2021/07/24 09:38:27;;;;;;;10.82;7.88;;;768.10;2278.40;;;;;;4938863;29;20038;-82
2021/07/24 09:40:55;;;;;;;9.35;7.18;;;768.40;2227.20;;;;;;4938957;29;20038;-83
2021/07/24 09:43:38;;;;;;;9.70;6.93;;;768.50;2201.60;;;;;;4938740;29;20090;-83
2021/07/24 09:46:11;;;;;;;10.27;7.55;;;768.10;2201.60;;;;;;4938774;29;20027;-83
2021/07/24 09:48:38;;;;;;;11.93;8.10;;;743.10;2201.60;;;;;;4938961;29;20042;-83
2021/07/24 09:51:04;;;;;;;12.82;8.65;;;768.10;2176.00;;;;;;4939026;29;20106;-84
2021/07/24 09:53:44;;;;;;;10.63;7.80;;;768.30;2124.80;;;;;;4939001;29;20045;-83
2021/07/24 09:56:15;;;;;;;15.25;10.20;;;768.40;2124.80;;;;;;4939094;29;20126;-85
2021/07/24 09:58:42;;;;;;;14.57;12.27;;;768.40;2124.80;;;;;;4939142;29;20039;-84
2021/07/24 10:01:10;;;;;;;16.13;14.32;;;768.90;2124.80;;;;;;4939619;29;20035;-85
2021/07/24 10:03:38;;;;;;;8.70;7.47;;;793.70;2073.60;;;;;;4939062;29;20508;-84
2021/07/24 10:06:15;;;;;;;11.90;7.30;;;793.80;2022.40;;;;;;4938797;29;20027;-85
2021/07/24 10:08:48;;;;;;;8.40;6.43;;;793.90;2022.40;;;;;;4939099;29;20028;-83
2021/07/24 10:11:14;;;;;;;7.57;6.20;;;794.00;1920.00;;;;;;4939055;29;20027;-83
2021/07/24 10:13:42;;;;;;;8.25;6.68;;;794.10;1894.40;;;;;;4938681;29;20031;-83
2021/07/24 10:16:11;;;;;;;9.98;6.38;;;793.80;1843.20;;;;;;4955949;29;20031;-83
2021/07/24 10:18:39;;;;;;;8.85;6.70;;;793.90;1894.40;;;;;;4938522;29;20028;-83
2021/07/24 10:21:05;;;;;;;12.32;7.47;;;794.20;1894.40;;;;;;4938330;29;20027;-84
2021/07/24 10:23:33;;;;;;;11.13;7.07;;;794.50;1843.20;;;;;;4938227;29;20046;-83
2021/07/24 10:26:17;;;;;;;9.52;7.43;;;819.20;1792.00;;;;;;4938572;29;20067;-83
2021/07/24 10:28:54;;;;;;;14.57;8.07;;;819.60;1817.60;;;;;;4938496;29;20027;-84
2021/07/24 10:31:44;;;;;;;9.00;5.78;;;819.80;1817.60;;;;;;4938264;29;20059;-83
2021/07/24 10:34:12;;;;;;;8.00;6.20;;;819.90;1766.40;;;;;;4938660;29;20031;-83
2021/07/24 10:36:42;;;;;;;8.00;6.63;;;819.60;1689.60;;;;;;4938468;29;20035;-84
2021/07/24 10:39:15;;;;;;;10.52;6.63;;;819.70;1715.20;;;;;;4938897;28;20484;-85
2021/07/24 10:41:43;;;;;;;9.65;6.72;;;819.80;1715.20;;;;;;4942473;29;20035;-84
2021/07/24 10:44:14;;;;;;;9.95;6.28;;;819.90;1740.80;;;;;;4942122;29;20027;-82
2021/07/24 10:46:40;;;;;;;9.27;6.47;;;819.80;1715.20;;;;;;4942198;29;20492;-82
2021/07/24 10:49:35;;;;;;;8.70;7.63;;;820.10;1740.80;;;;;;4942004;29;20031;-83
2021/07/24 10:52:06;;;;;;;8.52;5.97;;;844.80;1689.60;;;;;;4933368;29;20126;-83
2021/07/24 10:54:52;;;;;;;10.63;6.38;;;844.90;1664.00;;;;;;4941896;29;20027;-82
2021/07/24 10:57:45;;;;;;;22.83;8.05;;;845.00;1638.40;;;;;;4941842;29;20501;-83
2021/07/24 11:00:17;;;;;;;12.57;7.32;;;845.20;1638.40;;;;;;4941587;29;20031;-83
2021/07/24 11:02:43;;;;;;;;;;;;;;;;;;4942279;29;20023;-83
2021/07/24 11:05:27;;;;;;;10.25;8.05;;;845.40;1664.00;;;;;;4942231;29;19913;-84
2021/07/24 11:07:53;;;;;;;7.95;6.47;;;845.50;1664.00;;;;;;4941947;29;20035;-82
2021/07/24 11:10:19;;;;;;;6.78;5.80;;;845.60;1612.80;;;;;;4941667;29;20094;-83
2021/07/24 11:12:46;;;;;;;10.23;7.10;;;845.10;1612.80;;;;;;4941438;29;20036;-85
2021/07/24 11:15:20;;;;;;;7.70;6.15;;;845.40;1664.00;;;;;;4942233;29;20059;-87
2021/07/24 11:18:26;;;;;;;9.00;8.00;;;845.40;1612.80;;;;;;4942458;29;20027;-84
2021/07/24 11:20:53;;;;;;;8.15;6.30;;;845.50;1587.20;;;;;;4942839;29;20032;-84
2021/07/24 11:23:20;;;;;;;8.48;6.30;;;845.70;1612.80;;;;;;4941759;29;20038;-82
2021/07/24 11:25:46;;;;;;;7.10;5.75;;;845.60;1612.80;;;;;;4958949;29;20059;-85
2021/07/24 11:28:18;;;;;;;10.95;6.10;;;845.50;1587.20;;;;;;4959061;29;20058;-83
2021/07/24 11:30:44;;;;;;;10.57;6.57;;;845.20;1587.20;;;;;;4941288;29;20075;-83
2021/07/24 11:33:16;;;;;;;11.30;7.20;;;845.40;1638.40;;;;;;4941314;29;20035;-84
2021/07/24 11:35:43;;;;;;;14.50;12.80;;;845.70;1587.20;;;;;;4941923;29;20050;-85
2021/07/24 11:38:22;;;;;;;10.25;8.73;;;870.70;1587.20;;;;;;4941704;29;20466;-85
2021/07/24 11:41:06;;;;;;;10.38;8.10;;;870.80;1536.00;;;;;;4941685;29;20492;-83
2021/07/24 11:43:32;;;;;;;8.82;6.40;;;845.70;1587.20;;;;;;4958022;29;20029;-83
2021/07/24 11:46:03;;;;;;;9.18;6.25;;;845.10;1638.40;;;;;;4958162;29;20027;-81
2021/07/24 11:48:29;;;;;;;8.05;5.97;;;819.70;1561.60;;;;;;4941119;29;20078;-81
2021/07/24 11:51:09;;;;;;;10.02;6.07;;;819.50;1638.40;;;;;;4957751;28;20042;-82
2021/07/24 11:53:35;;;;;;;6.40;5.78;;;794.50;1689.60;;;;;;4958228;29;20034;-83
2021/07/24 11:56:01;;;;;;;8.98;5.90;;;819.90;1612.80;;;;;;4940976;29;20031;-82
2021/07/24 11:58:27;;;;;;;8.32;6.22;;;820.10;1612.80;;;;;;4956869;29;20036;-84
2021/07/24 12:00:55;;;;;;;8.30;6.25;;;845.10;1638.40;;;;;;4940941;29;20090;-81
2021/07/24 12:03:22;;;;;;;7.78;5.85;;;845.30;1664.00;;;;;;4940886;29;20030;-82
2021/07/24 12:05:53;;;;;;;6.85;6.00;;;845.10;1561.60;;;;;;4957484;29;20031;-84
2021/07/24 12:08:26;;;;;;;14.13;7.67;;;845.30;1561.60;;;;;;4940766;29;20031;-82
2021/07/24 12:10:52;;;;;;;11.20;7.55;;;845.70;1536.00;;;;;;4940742;29;20781;-81
2021/07/24 12:13:24;;;;;;;10.52;6.38;;;870.50;1510.40;;;;;;4940356;29;20043;-82
2021/07/24 12:15:58;;;;;;;9.93;6.18;;;870.50;1510.40;;;;;;4940790;29;20031;-82